Pays
Station

 

Conditions  météo  pour  Tetuan/Sania Ramel  -  Maroc    Maroc

  
20 °C
    
 
 

METAR pour Tetuan/Sania Ramel :

GMTN 212200Z 00000KT 6000 BKN016 20/17 Q1018 NOSIG

 

Voici le bulletin pour Tetuan/Sania Ramel - Maroc.
 
Le bulletin a été fait il y a une heure et 1 minutes, à 22:00 UTC .
Le vent était calme.
 
La température était de 20 °C, avec un point de rosée à 17 °C.
La pression atmosphérique était de 1018 hPa.
L'humidité relative était de 82.9%.
 
Il y avait 5 à 7/8ème de nébulosité à une hauteur de 488 mètres.
 
La visibilité globale était de 6.0 kilomètres.
 

 
 
 

Pays :   A   B   C   D   E   F   G   H   I   J   K   L   M   N   O   P   Q   R   S   T   U   V   W   Y   Z

 

Partenaires :  Info Météo avec Met'info
Météo Marine avec MeteoMarine.net
Infos Site  |  Infos Légales  |  Crédits  |  Confidentialité
Contactez-nous  |  Ajouter aux favoris
© 2013-2018 METAR - Tous droits réservés